Time;durP1;ratioP1;P1;durP2;ratioP2;P2;SDS_P1;SDS_P2;PMS_P1;PMS_P2;Temp;Humidity;BMP_temperature;BMP_pressure;BME280_temperature;BME280_humidity;BME280_pressure;Samples;Min_cycle;Max_cycle;Signal;HPM_P1;HPM_P2
2021/09/22 00:00:12;;;;;;;;;35.25;32.00;;;;;16.70;59.32;102671.88;4914001;28;45745;-64
2021/09/22 00:02:37;;;;;;;;;37.25;27.50;;;;;16.69;59.18;102667.50;4918161;28;45467;-64
2021/09/22 00:05:03;;;;;;;;;31.75;30.25;;;;;16.70;59.26;102663.91;4916718;28;45500;-63
2021/09/22 00:07:29;;;;;;;;;39.75;32.75;;;;;16.69;59.42;102664.84;4916338;28;45321;-64
2021/09/22 00:09:54;;;;;;;;;29.75;28.25;;;;;16.69;59.50;102663.03;4915345;28;45305;-64
2021/09/22 00:12:20;;;;;;;;;38.25;30.00;;;;;16.68;59.40;102655.13;4917766;28;45683;-64
2021/09/22 00:14:45;;;;;;;;;38.75;29.75;;;;;16.68;59.33;102663.97;4914619;28;46321;-63
2021/09/22 00:17:10;;;;;;;;;28.50;25.00;;;;;16.67;59.30;102661.38;4917999;28;46484;-64
2021/09/22 00:19:36;;;;;;;;;35.50;32.00;;;;;16.67;59.34;102662.25;4916769;28;45416;-63
2021/09/22 00:22:02;;;;;;;;;40.00;31.00;;;;;16.67;59.95;102653.41;4919539;28;45597;-63
2021/09/22 00:24:27;;;;;;;;;32.25;27.25;;;;;16.62;59.93;102650.97;4917530;28;46032;-63
2021/09/22 00:26:53;;;;;;;;;40.00;32.75;;;;;16.57;59.97;102658.34;4920339;28;45459;-63
2021/09/22 00:29:18;;;;;;;;;33.00;27.00;;;;;16.58;59.92;102665.38;4919351;28;45409;-63
2021/09/22 00:31:43;;;;;;;;;26.50;25.50;;;;;16.59;59.91;102668.88;4921585;28;45359;-63
2021/09/22 00:34:09;;;;;;;;;37.50;30.25;;;;;16.57;59.88;102658.34;4920226;28;45519;-63
2021/09/22 00:36:35;;;;;;;;;33.00;30.50;;;;;16.54;60.06;102655.84;4918817;28;45380;-63
2021/09/22 00:39:01;;;;;;;;;31.25;28.75;;;;;16.48;60.25;102650.84;4917374;28;45419;-63
2021/09/22 00:41:26;;;;;;;;;34.50;28.25;;;;;16.47;60.38;102657.97;4920593;28;45272;-63
2021/09/22 00:43:52;;;;;;;;;34.25;31.75;;;;;16.46;60.38;102653.59;4919643;28;45260;-63
2021/09/22 00:46:18;;;;;;;;;40.25;32.75;;;;;16.44;60.46;102652.84;4919272;28;45467;-64
2021/09/22 00:48:43;;;;;;;;;34.75;31.00;;;;;16.40;60.51;102645.94;4917442;28;45303;-64
2021/09/22 00:51:09;;;;;;;;;38.00;32.75;;;;;16.38;60.44;102647.84;4918569;28;45335;-64
2021/09/22 00:53:36;;;;;;;;;39.50;31.75;;;;;16.36;60.54;102641.75;4918649;28;46058;-65
2021/09/22 00:56:03;;;;;;;;;31.50;29.00;;;;;16.32;60.80;102645.50;4918766;28;45404;-64
2021/09/22 00:58:30;;;;;;;;;33.50;29.75;;;;;16.27;60.96;102638.69;4916901;28;45367;-64
2021/09/22 01:00:56;;;;;;;;;40.75;31.75;;;;;16.24;60.85;102631.75;4919272;28;45227;-64
2021/09/22 01:03:25;;;;;;;;;40.25;32.75;;;;;16.24;61.24;102630.88;4918365;28;45250;-63
2021/09/22 01:05:53;;;;;;;;;34.25;29.00;;;;;16.23;60.82;102630.03;4920921;28;45350;-63
2021/09/22 01:08:19;;;;;;;;;35.00;30.50;;;;;16.22;61.38;102627.47;4919906;28;45395;-64
2021/09/22 01:10:46;;;;;;;;;33.75;31.25;;;;;16.23;60.97;102627.38;4919567;28;45607;-64
2021/09/22 01:13:12;;;;;;;;;42.75;32.75;;;;;16.22;61.34;102627.47;4916722;28;45467;-64
2021/09/22 01:15:39;;;;;;;;;38.25;32.25;;;;;16.16;61.23;102637.47;4915847;28;45344;-64
2021/09/22 01:18:12;;;;;;;;;39.00;33.50;;;;;16.11;61.39;102636.84;4918203;28;45325;-63
2021/09/22 01:20:39;;;;;;;;;37.00;29.75;;;;;16.07;61.51;102635.28;4920429;28;45316;-64
2021/09/22 01:23:06;;;;;;;;;35.00;31.75;;;;;16.05;61.66;102633.66;4918614;28;45470;-64
2021/09/22 01:25:35;;;;;;;;;38.00;34.00;;;;;16.06;61.79;102625.59;4917864;28;46403;-63
2021/09/22 01:28:02;;;;;;;;;39.00;33.00;;;;;16.04;61.67;102618.66;4917008;28;45463;-64
2021/09/22 01:30:29;;;;;;;;;33.25;31.25;;;;;16.00;62.05;102617.09;4917385;28;45521;-64
2021/09/22 01:33:01;;;;;;;;;38.25;33.50;;;;;15.95;61.93;102622.63;4918265;28;46014;-63
2021/09/22 01:35:32;;;;;;;;;41.50;33.75;;;;;15.92;62.41;102625.44;4920161;28;45177;-64
2021/09/22 01:37:57;;;;;;;;;34.75;29.75;;;;;15.88;62.69;102624.75;4920919;28;46008;-64
2021/09/22 01:40:22;;;;;;;;;32.25;31.25;;;;;15.84;62.53;102627.66;4917164;28;45483;-64
2021/09/22 01:42:48;;;;;;;;;36.50;30.00;;;;;15.80;62.87;102615.44;4916895;28;45378;-64
2021/09/22 01:45:15;;;;;;;;;39.00;32.25;;;;;15.75;62.92;102623.66;4917697;28;45420;-63
2021/09/22 01:47:42;;;;;;;;;38.50;32.50;;;;;15.75;63.04;102626.31;4916951;28;45431;-64
2021/09/22 01:50:11;;;;;;;;;40.25;33.00;;;;;15.74;63.06;102627.25;4916792;28;45627;-64
2021/09/22 01:52:37;;;;;;;;;42.75;33.50;;;;;15.73;63.16;102625.56;4916822;28;45483;-63
2021/09/22 01:55:06;;;;;;;;;38.00;33.50;;;;;15.72;63.15;102628.25;4916938;28;45353;-63
2021/09/22 01:57:32;;;;;;;;;36.25;30.25;;;;;15.71;63.11;102627.41;4917282;28;45260;-63
2021/09/22 01:59:58;;;;;;;;;34.00;32.25;;;;;15.69;63.22;102623.97;4919019;28;45250;-64
2021/09/22 02:02:23;;;;;;;;;41.25;35.00;;;;;15.68;63.29;102624.06;4917942;28;45465;-64
2021/09/22 02:04:49;;;;;;;;;38.50;33.25;;;;;15.67;63.11;102627.66;4921040;28;45354;-64
2021/09/22 02:07:15;;;;;;;;;47.00;36.00;;;;;15.65;63.18;102624.22;4917888;28;45491;-64
2021/09/22 02:09:41;;;;;;;;;40.00;33.75;;;;;15.63;63.17;102619.81;4918268;28;45342;-64
2021/09/22 02:12:07;;;;;;;;;32.00;30.25;;;;;15.64;63.26;102618.06;4915835;28;46192;-64
2021/09/22 02:14:33;;;;;;;;;41.25;34.25;;;;;15.67;62.92;102620.53;4916754;28;45435;-63
2021/09/22 02:16:58;;;;;;;;;39.00;36.00;;;;;15.69;62.87;102613.34;4917103;28;46532;-64
2021/09/22 02:19:24;;;;;;;;;32.00;27.50;;;;;15.70;62.81;102612.41;4917858;28;45705;-64
2021/09/22 02:21:50;;;;;;;;;37.50;32.50;;;;;15.72;62.79;102607.00;4917471;28;45446;-64
2021/09/22 02:24:15;;;;;;;;;34.25;32.75;;;;;15.73;62.86;102595.47;4919687;28;45465;-63
2021/09/22 02:26:41;;;;;;;;;35.75;29.75;;;;;15.76;63.07;102590.84;4919116;28;45493;-64
2021/09/22 02:29:07;;;;;;;;;37.75;33.50;;;;;15.73;62.98;102588.34;4918218;28;45529;-64
2021/09/22 02:31:33;;;;;;;;;38.75;33.75;;;;;15.71;62.84;102584.03;4915376;28;45520;-63
2021/09/22 02:33:58;;;;;;;;;39.75;34.25;;;;;15.65;62.91;102577.25;4917536;28;45607;-63
2021/09/22 02:36:25;;;;;;;;;38.75;35.00;;;;;15.60;63.15;102579.25;4916287;28;45454;-63
2021/09/22 02:38:51;;;;;;;;;36.50;31.75;;;;;15.57;63.33;102577.63;4916565;28;45487;-64
2021/09/22 02:41:18;;;;;;;;;35.50;29.50;;;;;15.53;63.20;102565.41;4916383;28;45368;-63
2021/09/22 02:43:44;;;;;;;;;35.50;32.50;;;;;15.49;62.74;102563.88;4917288;28;45328;-64
2021/09/22 02:46:10;;;;;;;;;43.00;33.50;;;;;15.49;62.90;102563.00;4919025;28;45241;-64
2021/09/22 02:48:36;;;;;;;;;38.75;34.00;;;;;15.50;62.78;102551.44;4916953;28;45397;-64
2021/09/22 02:51:02;;;;;;;;;36.75;31.50;;;;;15.48;62.94;102554.19;4915829;28;46473;-64
2021/09/22 02:53:30;;;;;;;;;39.25;33.50;;;;;15.48;62.90;102555.94;4916695;28;45352;-64
2021/09/22 02:55:56;;;;;;;;;43.25;32.75;;;;;15.45;62.92;102556.97;4916917;28;45380;-63
2021/09/22 02:58:22;;;;;;;;;39.25;34.00;;;;;15.42;62.77;102549.19;4918633;28;45360;-63
2021/09/22 03:00:48;;;;;;;;;37.50;32.50;;;;;15.40;62.92;102547.50;4917236;28;46192;-63
2021/09/22 03:03:17;;;;;;;;;44.50;33.00;;;;;15.41;62.98;102544.81;4920379;28;45253;-63
2021/09/22 03:05:42;;;;;;;;;37.75;30.75;;;;;15.40;62.85;102542.19;4916180;28;45487;-63
2021/09/22 03:08:08;;;;;;;;;42.50;33.00;;;;;15.41;63.01;102539.50;4917613;28;45488;-63
2021/09/22 03:10:34;;;;;;;;;36.25;32.25;;;;;15.40;62.92;102532.44;4914845;28;45562;-64
2021/09/22 03:13:00;;;;;;;;;40.00;34.75;;;;;15.38;62.85;102536.97;4916648;28;45436;-64
2021/09/22 03:15:25;;;;;;;;;38.00;33.25;;;;;15.39;62.93;102532.53;4915481;28;45308;-64
2021/09/22 03:17:51;;;;;;;;;34.25;31.75;;;;;15.39;62.90;102528.06;4916205;28;45388;-64
2021/09/22 03:20:16;;;;;;;;;40.50;32.75;;;;;15.33;63.04;102534.56;4916046;28;45847;-64
2021/09/22 03:22:42;;;;;;;;;49.00;33.75;;;;;15.33;62.97;102531.91;4917999;28;45329;-64
2021/09/22 03:25:09;;;;;;;;;45.00;34.00;;;;;15.34;63.21;102533.63;4917400;28;45320;-64
2021/09/22 03:27:35;;;;;;;;;43.75;36.00;;;;;15.33;63.17;102533.72;4920112;28;45467;-63
2021/09/22 03:30:01;;;;;;;;;42.00;34.75;;;;;15.30;63.23;102525.88;4915601;28;46175;-63
2021/09/22 03:32:27;;;;;;;;;32.00;30.00;;;;;15.25;63.06;102522.63;4917331;28;45475;-64
2021/09/22 03:34:52;;;;;;;;;32.50;30.75;;;;;15.25;63.21;102539.41;4914798;28;45453;-64
2021/09/22 03:37:18;;;;;;;;;40.50;34.00;;;;;15.28;63.13;102528.63;4916624;28;45488;-63
2021/09/22 03:39:43;;;;;;;;;35.50;32.25;;;;;15.28;63.16;102525.97;4915239;28;46014;-63
2021/09/22 03:42:09;;;;;;;;;36.75;33.50;;;;;15.26;63.19;102533.16;4916367;28;45451;-63
2021/09/22 03:44:34;;;;;;;;;39.00;32.50;;;;;15.26;63.39;102538.47;4917375;28;46044;-63
2021/09/22 03:47:00;;;;;;;;;35.25;29.25;;;;;15.28;63.53;102536.59;4917960;28;45341;-63
2021/09/22 03:49:25;;;;;;;;;32.00;32.00;;;;;15.28;63.37;102541.03;4916677;28;46048;-63
2021/09/22 03:51:51;;;;;;;;;44.50;34.75;;;;;15.27;63.33;102542.84;4919741;28;45276;-63
2021/09/22 03:54:17;;;;;;;;;42.75;32.50;;;;;15.30;63.13;102545.31;4916168;28;45325;-64
2021/09/22 03:56:43;;;;;;;;;42.00;34.75;;;;;15.31;62.96;102544.38;4916189;28;45448;-64
2021/09/22 03:59:08;;;;;;;;;39.75;33.00;;;;;15.32;63.18;102546.13;4915621;28;45825;-63
2021/09/22 04:01:34;;;;;;;;;43.50;35.50;;;;;15.32;62.53;102556.75;4917739;28;45283;-63
2021/09/22 04:03:59;;;;;;;;;37.50;32.25;;;;;15.31;62.61;102556.81;4917820;28;45397;-63
2021/09/22 04:06:25;;;;;;;;;38.75;33.50;;;;;15.30;62.68;102553.28;4919204;28;45476;-63
2021/09/22 04:08:50;;;;;;;;;38.25;33.00;;;;;15.29;62.86;102556.03;4916752;28;45422;-63
2021/09/22 04:11:17;;;;;;;;;50.75;37.75;;;;;15.26;62.54;102557.06;4915514;28;46423;-63
2021/09/22 04:13:42;;;;;;;;;43.50;34.00;;;;;15.24;62.61;102560.69;4914828;28;45633;-63
2021/09/22 04:16:09;;;;;;;;;36.75;32.25;;;;;15.22;62.76;102560.78;4914740;28;45603;-63
2021/09/22 04:18:36;;;;;;;;;42.75;35.00;;;;;15.19;62.69;102563.59;4914749;28;46459;-63
2021/09/22 04:21:02;;;;;;;;;41.00;35.50;;;;;15.18;62.97;102561.88;4916049;28;45323;-63
2021/09/22 04:23:27;;;;;;;;;44.25;34.00;;;;;15.18;62.79;102563.69;4916138;28;45436;-64
2021/09/22 04:25:53;;;;;;;;;44.00;37.25;;;;;15.15;63.01;102564.66;4918510;28;45412;-64
2021/09/22 04:28:19;;;;;;;;;50.00;36.50;;;;;15.14;62.78;102560.31;4917767;28;45415;-63
2021/09/22 04:30:45;;;;;;;;;43.75;35.75;;;;;15.15;62.87;102563.81;4916222;28;45221;-63
2021/09/22 04:33:10;;;;;;;;;44.75;33.75;;;;;15.14;62.65;102570.91;4915692;28;45490;-63
2021/09/22 04:35:35;;;;;;;;;37.00;33.00;;;;;15.11;62.72;102564.91;4917722;28;45225;-63
2021/09/22 04:38:02;;;;;;;;;42.25;33.25;;;;;15.11;62.91;102560.47;4917196;28;45412;-63
2021/09/22 04:40:30;;;;;;;;;44.50;37.00;;;;;15.11;62.99;102557.81;4918645;28;45276;-63
2021/09/22 04:42:57;;;;;;;;;48.25;34.25;;;;;15.10;63.13;102569.38;4915922;28;45291;-63
2021/09/22 04:45:25;;;;;;;;;41.25;35.00;;;;;15.07;62.96;102557.09;4916065;28;45413;-64
2021/09/22 04:47:51;;;;;;;;;46.00;35.25;;;;;15.04;62.94;102559.03;4913707;28;46165;-63
2021/09/22 04:50:17;;;;;;;;;45.25;36.25;;;;;15.01;62.97;102554.75;4914898;28;45251;-63
2021/09/22 04:52:42;;;;;;;;;45.75;34.50;;;;;15.00;63.31;102557.47;4914826;28;45541;-63
2021/09/22 04:55:08;;;;;;;;;39.25;34.25;;;;;15.00;63.26;102563.63;4915645;28;45562;-63
2021/09/22 04:57:34;;;;;;;;;35.50;33.00;;;;;15.02;63.05;102568.88;4915114;28;45483;-63
2021/09/22 04:59:59;;;;;;;;;48.00;37.75;;;;;15.00;63.27;102565.41;4917082;28;45454;-63
2021/09/22 05:02:25;;;;;;;;;44.25;36.50;;;;;14.94;63.09;102565.75;4916528;28;45494;-64
2021/09/22 05:04:51;;;;;;;;;43.00;36.50;;;;;14.92;63.21;102568.44;4918551;28;45581;-64
2021/09/22 05:07:16;;;;;;;;;44.50;33.75;;;;;14.90;62.94;102569.47;4913630;28;45467;-63
2021/09/22 05:09:42;;;;;;;;;40.25;35.50;;;;;14.91;63.33;102569.38;4916638;28;45523;-63
2021/09/22 05:12:07;;;;;;;;;45.00;33.50;;;;;14.85;63.09;102569.72;4917610;28;45515;-63
2021/09/22 05:14:33;;;;;;;;;42.75;35.25;;;;;14.84;63.22;102567.09;4917282;28;45325;-63
2021/09/22 05:16:59;;;;;;;;;39.00;35.50;;;;;14.78;63.18;102562.97;4917339;28;45321;-63
2021/09/22 05:19:24;;;;;;;;;42.75;34.75;;;;;14.74;63.37;102564.88;4918149;28;45174;-63
2021/09/22 05:21:50;;;;;;;;;35.50;32.50;;;;;14.72;63.65;102560.59;4918406;28;45247;-63
2021/09/22 05:24:15;;;;;;;;;45.50;33.50;;;;;14.71;63.36;102561.53;4920323;28;45528;-63
2021/09/22 05:26:41;;;;;;;;;44.75;37.25;;;;;14.72;63.37;102558.81;4920237;28;45349;-63
2021/09/22 05:29:07;;;;;;;;;42.00;36.00;;;;;14.72;63.56;102555.28;4921141;28;45238;-63
2021/09/22 05:31:32;;;;;;;;;39.75;34.25;;;;;14.70;63.16;102559.81;4916453;28;45313;-63
2021/09/22 05:33:58;;;;;;;;;38.25;34.50;;;;;14.69;63.27;102560.72;4917977;28;45249;-63
2021/09/22 05:36:23;;;;;;;;;50.75;36.75;;;;;14.66;63.71;102564.41;4917111;28;46208;-63
2021/09/22 05:38:49;;;;;;;;;40.25;35.50;;;;;14.64;63.62;102568.06;4916764;28;45280;-63
2021/09/22 05:41:15;;;;;;;;;42.25;33.00;;;;;14.64;63.56;102565.41;4917340;28;45384;-64
2021/09/22 05:43:40;;;;;;;;;47.50;38.25;;;;;14.65;63.73;102565.34;4918642;28;45494;-64
2021/09/22 05:46:06;;;;;;;;;48.50;39.00;;;;;14.62;64.13;102565.50;4919298;28;45308;-64
2021/09/22 05:48:31;;;;;;;;;48.25;38.50;;;;;14.60;63.88;102567.31;4916673;28;45350;-63
2021/09/22 05:50:57;;;;;;;;;46.25;34.00;;;;;14.62;63.62;102561.97;4917424;28;45320;-63
2021/09/22 05:53:23;;;;;;;;;39.75;27.25;;;;;14.64;63.92;102563.63;4918415;28;45587;-64
2021/09/22 05:55:49;;;;;;;;;42.00;34.50;;;;;14.67;63.90;102567.91;4917949;28;45318;-63
2021/09/22 05:58:16;;;;;;;;;46.00;37.00;;;;;14.69;63.71;102579.28;4919883;28;45404;-63
2021/09/22 06:00:45;;;;;;;;;33.50;30.50;;;;;14.72;64.19;102580.03;4919882;28;45465;-63
2021/09/22 06:03:10;;;;;;;;;38.00;33.50;;;;;14.76;63.95;102573.63;4918651;28;45531;-63
2021/09/22 06:05:39;;;;;;;;;47.00;36.00;;;;;14.78;63.42;102579.75;4916200;28;45540;-63
2021/09/22 06:08:06;;;;;;;;;39.25;34.00;;;;;14.79;63.40;102583.25;4917946;28;45220;-63
2021/09/22 06:10:31;;;;;;;;;40.00;33.50;;;;;14.82;63.12;102582.25;4915852;28;45306;-63
2021/09/22 06:12:57;;;;;;;;;42.75;32.75;;;;;14.83;63.29;102579.50;4920463;28;45250;-63
2021/09/22 06:15:24;;;;;;;;;38.25;33.00;;;;;14.84;63.15;102575.91;4916768;28;46194;-63
2021/09/22 06:17:49;;;;;;;;;42.50;32.75;;;;;14.89;63.16;102579.22;4918239;28;45455;-63
2021/09/22 06:20:15;;;;;;;;;42.50;35.00;;;;;14.94;62.96;102581.66;4915589;28;45411;-63
2021/09/22 06:22:40;;;;;;;;;39.50;33.75;;;;;15.00;62.82;102573.38;4917740;28;45522;-63
2021/09/22 06:25:06;;;;;;;;;43.75;35.75;;;;;15.04;62.91;102589.09;4916366;28;45395;-63
2021/09/22 06:27:32;;;;;;;;;46.25;35.25;;;;;15.08;62.75;102587.13;4916620;28;45392;-63
2021/09/22 06:29:57;;;;;;;;;45.25;35.25;;;;;15.13;62.61;102585.13;4917095;28;45472;-63
2021/09/22 06:32:23;;;;;;;;;41.75;35.25;;;;;15.19;62.54;102590.16;4919269;28;45483;-63
2021/09/22 06:34:48;;;;;;;;;37.75;34.00;;;;;15.23;62.44;102585.53;4918065;28;46019;-63
2021/09/22 06:37:14;;;;;;;;;36.75;31.75;;;;;15.27;62.32;102593.28;4920343;28;45243;-63
2021/09/22 06:39:39;;;;;;;;;36.25;33.00;;;;;15.30;61.97;102589.59;4915706;28;45380;-63
2021/09/22 06:42:05;;;;;;;;;35.50;33.50;;;;;15.35;62.03;102584.94;4918075;28;46299;-64
2021/09/22 06:44:30;;;;;;;;;37.50;32.75;;;;;15.40;61.99;102588.19;4915258;28;45225;-63
2021/09/22 06:46:56;;;;;;;;;48.25;35.25;;;;;15.38;62.08;102590.09;4916514;28;45225;-63
2021/09/22 06:49:21;;;;;;;;;44.75;34.75;;;;;15.39;62.18;102589.16;4918120;28;45436;-63
2021/09/22 06:51:47;;;;;;;;;43.25;35.25;;;;;15.41;62.02;102586.44;4923311;28;45561;-63
2021/09/22 06:54:12;;;;;;;;;46.50;35.00;;;;;15.44;61.72;102587.13;4918109;28;45257;-64
2021/09/22 06:56:38;;;;;;;;;36.50;33.25;;;;;15.47;61.69;102594.06;4927530;28;45382;-63
2021/09/22 06:59:03;;;;;;;;;37.25;32.50;;;;;15.48;61.67;102594.03;4919574;28;45530;-63
2021/09/22 07:01:29;;;;;;;;;45.00;35.00;;;;;15.51;61.68;102595.66;4923779;28;45442;-63
2021/09/22 07:03:54;;;;;;;;;39.00;34.75;;;;;15.54;61.55;102601.66;4922229;28;45371;-63
2021/09/22 07:06:20;;;;;;;;;41.00;33.25;;;;;15.56;61.46;102604.22;4914018;28;45419;-63
2021/09/22 07:08:46;;;;;;;;;35.00;32.75;;;;;15.60;61.68;102605.81;4922036;28;45488;-63
2021/09/22 07:11:11;;;;;;;;;36.00;33.25;;;;;15.61;61.37;102608.41;4911678;28;45325;-63
2021/09/22 07:13:37;;;;;;;;;45.50;33.75;;;;;15.64;61.12;102604.75;4922290;28;45975;-63
2021/09/22 07:16:05;;;;;;;;;37.75;33.25;;;;;15.69;61.41;102601.84;4927115;28;45320;-63
2021/09/22 07:18:30;;;;;;;;;32.50;27.50;;;;;15.69;60.91;102612.47;4923938;28;45459;-63
2021/09/22 07:20:57;;;;;;;;;39.50;33.00;;;;;15.68;61.11;102608.13;4923832;28;45451;-62
2021/09/22 07:23:22;;;;;;;;;37.25;33.00;;;;;15.70;61.05;102612.41;4922948;28;45592;-59
2021/09/22 07:25:48;;;;;;;;;35.75;30.00;;;;;15.73;60.75;102611.41;4923722;28;45406;-62
2021/09/22 07:28:13;;;;;;;;;41.75;35.75;;;;;15.75;60.84;102612.19;4923488;28;45304;-62
2021/09/22 07:30:39;;;;;;;;;35.50;29.50;;;;;15.75;60.85;102615.69;4923830;28;45509;-59
2021/09/22 07:33:06;;;;;;;;;39.00;33.25;;;;;15.72;60.77;102613.19;4922460;28;45411;-59
2021/09/22 07:35:31;;;;;;;;;38.50;33.50;;;;;15.73;60.72;102620.22;4922770;28;45458;-62
2021/09/22 07:37:57;;;;;;;;;46.75;38.00;;;;;15.75;60.63;102617.50;4922315;28;45475;-49
2021/09/22 07:40:23;;;;;;;;;41.75;34.25;;;;;15.80;61.07;102620.75;4923250;28;45332;-54
2021/09/22 07:42:48;;;;;;;;;40.75;32.50;;;;;15.80;60.62;102626.97;4919351;28;46224;-59
2021/09/22 07:45:14;;;;;;;;;33.25;27.75;;;;;15.84;60.27;102632.97;4915386;28;45430;-60
2021/09/22 07:47:40;;;;;;;;;36.75;31.25;;;;;15.86;60.50;102634.59;4919244;28;45446;-60
2021/09/22 07:50:08;;;;;;;;;33.75;29.25;;;;;15.90;60.53;102636.16;4918968;28;45411;-60
2021/09/22 07:52:36;;;;;;;;;41.75;35.50;;;;;15.92;60.32;102630.78;4919462;28;45358;-60
2021/09/22 07:55:04;;;;;;;;;38.75;31.75;;;;;15.94;60.35;102628.03;4898791;28;45456;-60
2021/09/22 07:57:30;;;;;;;;;34.00;31.25;;;;;15.97;60.74;102625.22;4916148;28;45427;-60
2021/09/22 07:59:56;;;;;;;;;37.75;31.75;;;;;16.01;60.45;102630.28;4917785;28;45341;-60
2021/09/22 08:02:21;;;;;;;;;43.25;33.75;;;;;16.05;60.33;102633.66;4915617;28;45412;-59
2021/09/22 08:04:47;;;;;;;;;40.50;31.00;;;;;16.06;60.00;102625.59;4915212;28;45419;-59
2021/09/22 08:07:12;;;;;;;;;43.00;33.00;;;;;16.09;60.11;102628.09;4916758;28;45271;-59
2021/09/22 08:09:38;;;;;;;;;54.00;40.50;;;;;16.12;60.08;102633.25;4918572;28;45218;-59
2021/09/22 08:12:05;;;;;;;;;42.75;34.00;;;;;16.15;59.96;102629.56;4917008;28;45600;-59
2021/09/22 08:14:31;;;;;;;;;38.75;32.50;;;;;16.17;59.90;102622.38;4916386;28;45527;-59
2021/09/22 08:16:58;;;;;;;;;43.75;35.00;;;;;16.18;59.96;102622.28;4916889;28;45307;-60
2021/09/22 08:19:25;;;;;;;;;43.25;35.25;;;;;16.22;60.07;102630.97;4915075;28;45392;-59
2021/09/22 08:21:51;;;;;;;;;40.00;35.50;;;;;16.28;59.94;102632.47;4914019;28;45380;-60
2021/09/22 08:24:16;;;;;;;;;42.50;35.50;;;;;16.34;60.05;102637.44;4922167;28;45412;-57
2021/09/22 08:26:42;;;;;;;;;54.25;42.50;;;;;16.41;59.87;102636.16;4919430;28;45298;-55
2021/09/22 08:29:07;;;;;;;;;45.25;38.00;;;;;16.49;59.84;102641.94;4915205;28;45621;-56
2021/09/22 08:31:33;;;;;;;;;38.50;34.00;;;;;16.54;59.55;102628.38;4915879;28;46213;-58
2021/09/22 08:33:58;;;;;;;;;45.50;35.00;;;;;16.59;59.38;102632.53;4914242;28;45489;-59
2021/09/22 08:36:24;;;;;;;;;40.25;33.25;;;;;16.64;59.17;102632.25;4917281;28;45562;-56
2021/09/22 08:38:51;;;;;;;;;39.50;32.50;;;;;16.70;59.18;102635.47;4915841;28;45399;-57
2021/09/22 08:41:17;;;;;;;;;48.25;38.00;;;;;16.79;59.09;102638.56;4912848;28;45506;-57
2021/09/22 08:43:43;;;;;;;;;47.75;40.25;;;;;16.85;58.97;102632.94;4917384;28;45336;-56
2021/09/22 08:46:09;;;;;;;;;43.75;34.75;;;;;16.91;58.90;102625.47;4915344;28;45389;-55
2021/09/22 08:48:35;;;;;;;;;43.50;36.75;;;;;17.00;58.61;102640.06;4922890;28;45494;-55
2021/09/22 08:51:01;;;;;;;;;36.00;32.25;;;;;17.01;58.78;102639.97;4925618;28;46018;-54
2021/09/22 08:53:27;;;;;;;;;41.25;35.25;;;;;17.06;58.49;102649.47;4925301;28;45705;-55
2021/09/22 08:55:53;;;;;;;;;42.50;35.00;;;;;17.12;58.35;102647.34;4925479;28;45243;-54
2021/09/22 08:58:19;;;;;;;;;37.25;34.75;;;;;17.19;58.02;102647.84;4925021;28;45458;-56
2021/09/22 09:00:46;;;;;;;;;46.00;34.00;;;;;17.26;57.90;102644.75;4925037;28;45389;-61
2021/09/22 09:03:41;;;;;;;;;33.00;27.00;;;;;17.34;57.32;102641.66;4924628;28;45372;-61
2021/09/22 09:06:35;;;;;;;;;38.75;32.25;;;;;17.39;56.88;102639.59;4925180;28;45320;-70
2021/09/22 09:09:03;;;;;;;;;35.00;32.50;;;;;17.46;56.99;102638.31;4918242;28;45328;-76
2021/09/22 09:11:34;;;;;;;;;36.25;32.00;;;;;17.55;56.84;102643.09;4907692;28;47829;-74
2021/09/22 09:14:05;;;;;;;;;39.50;33.75;;;;;17.64;56.76;102643.50;4924892;28;45385;-78
2021/09/22 09:16:48;;;;;;;;;36.00;33.50;;;;;17.71;56.18;102644.88;4912230;28;45527;-77
2021/09/22 09:19:19;;;;;;;;;34.00;29.00;;;;;17.76;56.41;102637.47;4921347;28;45497;-77
2021/09/22 09:22:05;;;;;;;;;38.50;32.00;;;;;17.85;55.94;102639.56;4924987;28;45681;-72
2021/09/22 09:24:43;;;;;;;;;38.50;33.50;;;;;17.93;55.88;102633.78;4925220;28;45580;-73
2021/09/22 09:27:35;;;;;;;;;36.50;31.25;;;;;18.01;56.09;102636.84;4924908;28;45432;-74
2021/09/22 09:30:15;;;;;;;;;35.50;31.00;;;;;18.06;55.50;102629.44;4924808;28;45534;-72
2021/09/22 09:32:40;;;;;;;;;34.25;28.00;;;;;18.12;55.14;102634.41;4913352;28;45325;-72
2021/09/22 09:35:13;;;;;;;;;44.00;31.50;;;;;18.19;55.55;102619.75;4925400;28;45281;-71
2021/09/22 09:37:43;;;;;;;;;35.50;29.75;;;;;18.24;55.01;102625.63;4925617;28;45308;-73
2021/09/22 09:40:25;;;;;;;;;30.25;27.75;;;;;18.30;54.96;102619.06;4925158;28;45455;-71
2021/09/22 09:42:57;;;;;;;;;32.25;26.50;;;;;18.35;53.64;102616.97;4924701;28;46130;-71
2021/09/22 09:45:25;;;;;;;;;27.25;25.50;;;;;18.39;53.26;102619.34;4924406;28;45572;-71
2021/09/22 09:48:05;;;;;;;;;28.00;23.75;;;;;18.48;53.41;102623.25;4925021;28;45376;-70
2021/09/22 09:50:53;;;;;;;;;29.25;26.00;;;;;18.55;53.25;102616.56;4922499;28;45312;-70
2021/09/22 09:53:26;;;;;;;;;28.25;22.75;;;;;18.63;52.21;102614.28;4924342;28;45436;-70
2021/09/22 09:55:53;;;;;;;;;23.00;21.75;;;;;18.66;51.42;102613.28;4924597;28;45331;-70
2021/09/22 09:58:21;;;;;;;;;26.00;21.50;;;;;18.70;51.91;102609.44;4922604;28;45317;-70
2021/09/22 10:00:49;;;;;;;;;29.75;25.25;;;;;18.75;51.60;102603.81;4923926;28;45424;-70
2021/09/22 10:03:20;;;;;;;;;25.75;24.25;;;;;18.79;52.14;102606.19;4924843;28;46197;-70
2021/09/22 10:05:51;;;;;;;;;24.50;23.00;;;;;18.82;51.40;102614.00;4925086;28;45193;-70
2021/09/22 10:08:20;;;;;;;;;25.00;24.75;;;;;18.86;50.89;102601.31;4924927;28;45400;-71
2021/09/22 10:10:49;;;;;;;;;30.50;28.25;;;;;18.91;51.22;102604.56;4924984;28;45527;-70
2021/09/22 10:13:16;;;;;;;;;31.50;24.25;;;;;18.99;51.31;102599.56;4925028;28;45364;-70
2021/09/22 10:15:44;;;;;;;;;24.50;21.75;;;;;19.07;50.58;102601.72;4924953;28;45471;-69
2021/09/22 10:18:11;;;;;;;;;28.50;24.50;;;;;19.11;50.60;102597.88;4924452;28;45418;-69
2021/09/22 10:20:41;;;;;;;;;27.50;21.00;;;;;19.17;50.15;102600.16;4924743;28;45244;-70
2021/09/22 10:23:09;;;;;;;;;25.25;24.00;;;;;19.24;49.82;102590.78;4924781;28;45408;-70
2021/09/22 10:25:35;;;;;;;;;22.75;20.25;;;;;19.27;50.28;102589.72;4924751;28;45262;-70
2021/09/22 10:28:01;;;;;;;;;26.00;22.75;;;;;19.34;49.99;102585.69;4907192;28;45364;-70
2021/09/22 10:30:39;;;;;;;;;20.50;17.25;;;;;19.39;49.98;102591.59;4924622;28;45517;-70
2021/09/22 10:33:05;;;;;;;;;19.50;16.50;;;;;19.45;49.23;102577.81;4924568;28;45505;-70
2021/09/22 10:35:35;;;;;;;;;18.50;16.75;;;;;19.52;48.84;102577.28;4924388;28;45325;-70
2021/09/22 10:38:21;;;;;;;;;22.00;21.50;;;;;19.59;48.95;102567.09;4924469;28;45268;-69
2021/09/22 10:40:52;;;;;;;;;20.75;19.75;;;;;19.61;48.77;102557.13;4907941;28;45470;-71
2021/09/22 10:43:24;;;;;;;;;22.00;17.00;;;;;19.65;47.98;102552.41;4923785;28;45388;-71
2021/09/22 10:46:05;;;;;;;;;22.75;17.25;;;;;19.66;48.34;102549.63;4923926;28;45338;-71
2021/09/22 10:48:33;;;;;;;;;24.50;20.75;;;;;19.73;48.78;102548.25;4923842;28;45286;-70
2021/09/22 10:51:04;;;;;;;;;18.75;17.00;;;;;19.76;48.46;102537.34;4923602;28;45267;-71
2021/09/22 10:53:32;;;;;;;;;19.00;17.00;;;;;19.77;48.33;102541.75;4923148;28;45302;-73
2021/09/22 10:56:15;;;;;;;;;15.50;12.75;;;;;19.79;47.14;102547.84;4923770;28;45282;-71
2021/09/22 10:58:51;;;;;;;;;20.25;16.00;;;;;19.82;47.18;102535.19;4923653;28;45227;-72
2021/09/22 11:01:28;;;;;;;;;16.25;15.75;;;;;19.85;47.34;102543.88;4923449;28;45460;-70
2021/09/22 11:03:56;;;;;;;;;14.75;13.75;;;;;19.89;46.98;102533.81;4923807;28;46412;-71
2021/09/22 11:06:51;;;;;;;;;14.00;11.75;;;;;19.94;46.38;102532.53;4923450;28;45306;-71
2021/09/22 11:09:17;;;;;;;;;15.00;13.25;;;;;19.98;46.74;102525.97;4923791;28;45324;-70